createdAt,value
2022-09-14T00:06:58.635Z,13.77
2022-09-14T00:15:21.522Z,13.68
2022-09-14T00:23:44.407Z,13.63
2022-09-14T00:32:07.281Z,13.53
2022-09-14T00:40:30.274Z,13.50
2022-09-14T00:48:54.715Z,13.50
2022-09-14T00:57:19.080Z,13.52
2022-09-14T01:06:00.817Z,13.59
2022-09-14T01:14:41.941Z,13.72
2022-09-14T01:23:29.542Z,13.79
2022-09-14T01:32:00.597Z,13.84
2022-09-14T01:40:56.011Z,13.87
2022-09-14T01:49:25.217Z,13.89
2022-09-14T01:57:58.625Z,13.88
2022-09-14T02:06:33.260Z,13.84
2022-09-14T02:14:56.199Z,13.83
2022-09-14T02:23:19.525Z,13.79
2022-09-14T02:32:05.751Z,13.73
2022-09-14T02:40:44.012Z,13.50
2022-09-14T02:49:30.645Z,13.32
2022-09-14T02:58:07.117Z,13.38
2022-09-14T03:06:30.204Z,13.47
2022-09-14T03:14:53.319Z,13.48
2022-09-14T03:23:17.095Z,13.46
2022-09-14T03:31:39.988Z,13.42
2022-09-14T03:40:04.992Z,13.43
2022-09-14T03:48:29.696Z,13.40
2022-09-14T03:56:54.102Z,13.42
2022-09-14T04:05:21.582Z,13.40
2022-09-14T04:13:45.918Z,13.33
2022-09-14T04:22:08.831Z,13.32
2022-09-14T04:30:31.712Z,13.32
2022-09-14T04:38:58.190Z,13.42
2022-09-14T04:47:21.036Z,13.52
2022-09-14T04:55:43.864Z,13.55
2022-09-14T05:04:09.337Z,13.63
2022-09-14T05:12:32.150Z,13.70
2022-09-14T05:20:54.979Z,13.70
2022-09-14T05:29:18.952Z,13.56
2022-09-14T05:37:41.735Z,13.36
2022-09-14T05:46:12.779Z,13.29
2022-09-14T05:54:36.131Z,13.32
2022-09-14T06:02:58.886Z,13.36
2022-09-14T06:11:24.685Z,13.44
2022-09-14T06:19:47.779Z,13.54
2022-09-14T06:28:10.693Z,13.70
2022-09-14T06:36:33.485Z,13.84
2022-09-14T06:44:56.773Z,13.95
2022-09-14T06:53:19.777Z,14.03
2022-09-14T07:01:44.916Z,14.13
2022-09-14T07:10:08.273Z,14.23
2022-09-14T07:18:34.512Z,14.32
2022-09-14T07:26:57.734Z,14.39
2022-09-14T07:35:20.812Z,14.44
2022-09-14T07:43:44.809Z,14.52
2022-09-14T07:52:08.939Z,14.60
2022-09-14T08:00:32.003Z,14.82
2022-09-14T08:08:56.342Z,15.10
2022-09-14T08:17:22.230Z,15.41
2022-09-14T08:25:45.224Z,15.81
2022-09-14T08:34:08.756Z,16.31
2022-09-14T08:42:32.420Z,16.85
2022-09-14T08:50:55.545Z,17.24
2022-09-14T08:59:46.537Z,17.46
2022-09-14T09:08:24.735Z,17.90
2022-09-14T09:16:51.580Z,18.39
2022-09-14T09:25:25.210Z,18.71
2022-09-14T09:33:49.800Z,19.03
2022-09-14T09:42:26.219Z,19.06
2022-09-14T09:51:06.990Z,18.92
2022-09-14T09:59:41.089Z,18.82
2022-09-14T10:08:11.454Z,18.87
2022-09-14T10:16:41.201Z,18.93
2022-09-14T10:25:22.385Z,18.91
2022-09-14T10:33:46.590Z,18.80
2022-09-14T10:42:27.937Z,18.92
2022-09-14T11:10:23.899Z,19.19
2022-09-14T11:18:58.040Z,18.96
2022-09-14T11:27:29.583Z,18.90
2022-09-14T11:35:59.017Z,18.92
2022-09-14T11:44:31.220Z,19.12
2022-09-14T11:53:14.067Z,19.31
2022-09-14T12:01:40.043Z,19.57
2022-09-14T12:10:17.917Z,19.78
2022-09-14T12:18:43.698Z,19.47
2022-09-14T12:27:23.272Z,19.00
2022-09-14T12:35:47.208Z,18.70
2022-09-14T12:44:37.128Z,18.53
2022-09-14T12:53:00.028Z,18.57
2022-09-14T13:01:45.876Z,18.83
2022-09-14T13:10:31.071Z,19.08
2022-09-14T13:19:02.052Z,19.27
2022-09-14T13:27:37.165Z,19.23
2022-09-14T13:36:02.899Z,19.03
2022-09-14T13:44:32.249Z,18.97
2022-09-14T13:53:02.448Z,18.97
2022-09-14T14:01:29.051Z,18.89
2022-09-14T14:09:57.627Z,18.77
2022-09-14T14:18:41.664Z,18.69
2022-09-14T14:27:04.604Z,18.54
2022-09-14T14:35:30.922Z,18.47
2022-09-14T14:43:54.033Z,18.45
2022-09-14T14:52:17.256Z,18.40
2022-09-14T15:00:40.505Z,18.45
2022-09-14T15:09:08.907Z,18.51
2022-09-14T15:17:31.656Z,18.35
2022-09-14T15:25:54.593Z,18.19
2022-09-14T15:34:17.423Z,18.13
2022-09-14T15:42:40.321Z,18.12
2022-09-14T15:51:11.630Z,18.05
2022-09-14T15:59:34.936Z,17.85
2022-09-14T16:07:59.975Z,17.64
2022-09-14T16:16:22.924Z,17.48
2022-09-14T16:24:45.801Z,17.38
2022-09-14T16:33:08.601Z,17.16
2022-09-14T16:41:33.091Z,17.01
2022-09-14T16:49:56.124Z,16.81
2022-09-14T16:58:19.077Z,16.58
2022-09-14T17:06:44.727Z,16.42
2022-09-14T17:15:09.404Z,16.16
2022-09-14T17:23:33.504Z,16.02
2022-09-14T17:31:56.634Z,15.96
2022-09-14T17:40:19.748Z,15.81
2022-09-14T17:48:43.411Z,15.64
2022-09-14T17:57:06.708Z,15.42
2022-09-14T18:05:29.473Z,15.22
2022-09-14T18:13:52.738Z,15.16
2022-09-14T18:22:16.866Z,15.18
2022-09-14T18:30:43.566Z,15.08
2022-09-14T18:39:06.705Z,15.02
2022-09-14T18:47:29.794Z,14.99
2022-09-14T18:55:52.650Z,14.94
2022-09-14T19:04:16.810Z,14.86
2022-09-14T19:12:40.597Z,14.80
2022-09-14T19:21:07.284Z,14.78
2022-09-14T19:29:32.738Z,14.77
2022-09-14T19:37:55.693Z,14.64
2022-09-14T19:46:21.407Z,14.51
2022-09-14T19:54:44.423Z,14.42
2022-09-14T20:03:08.285Z,14.39
2022-09-14T20:11:33.184Z,14.31
2022-09-14T20:19:56.224Z,14.29
2022-09-14T20:28:19.516Z,14.10
2022-09-14T20:36:42.935Z,13.93
2022-09-14T20:45:06.870Z,13.85
2022-09-14T20:53:33.579Z,13.81
2022-09-14T21:01:56.794Z,13.83
2022-09-14T21:10:19.933Z,13.81
2022-09-14T21:18:44.722Z,13.69
2022-09-14T21:27:07.762Z,13.60
2022-09-14T21:35:33.648Z,13.56
2022-09-14T21:43:57.744Z,13.47
2022-09-14T21:52:20.729Z,13.41
2022-09-14T22:00:43.783Z,13.41
2022-09-14T22:09:07.788Z,13.43
2022-09-14T22:17:32.327Z,13.37
2022-09-14T22:25:55.409Z,13.37
2022-09-14T22:34:18.371Z,13.31
2022-09-14T22:42:41.497Z,13.22
2022-09-14T22:51:06.981Z,13.15
2022-09-14T22:59:30.038Z,13.09
2022-09-14T23:07:53.269Z,13.08
2022-09-14T23:16:19.974Z,13.11
2022-09-14T23:24:43.201Z,13.11
2022-09-14T23:33:07.116Z,13.15
2022-09-14T23:41:30.867Z,13.19
2022-09-14T23:49:54.260Z,13.21
2022-09-14T23:58:17.741Z,13.25
